Time;durP1;ratioP1;P1;durP2;ratioP2;P2;SDS_P1;SDS_P2;PMS_P1;PMS_P2;Temp;Humidity;BMP_temperature;BMP_pressure;BME280_temperature;BME280_humidity;BME280_pressure;Samples;Min_cycle;Max_cycle;Signal;HPM_P1;HPM_P2
2021/08/30 00:02:31;;;;;;;9.28;8.38;;;;;;;11.77;76.00;99468.48;257207;1103;114958;-67
2021/08/30 00:07:35;;;;;;;13.90;7.30;;;;;;;11.67;75.54;99468.31;257220;1101;114988;-68
2021/08/30 00:12:40;;;;;;;9.95;7.73;;;;;;;11.52;75.43;99478.81;256017;1104;115884;-67
2021/08/30 00:17:45;;;;;;;15.08;7.65;;;;;;;11.38;75.67;99494.36;257261;1102;115943;-66
2021/08/30 00:22:49;;;;;;;11.43;7.78;;;;;;;11.29;75.93;99493.19;254880;1094;115445;-66
2021/08/30 00:27:52;;;;;;;12.38;8.40;;;;;;;11.32;76.51;99491.86;256291;1103;115606;-67
2021/08/30 00:32:55;;;;;;;8.60;7.70;;;;;;;11.40;76.96;99491.45;256233;1102;115840;-66
2021/08/30 00:37:58;;;;;;;10.95;7.63;;;;;;;11.43;76.72;99509.64;255256;1101;115985;-66
2021/08/30 00:43:05;;;;;;;10.28;9.18;;;;;;;11.50;76.86;99502.27;255377;1101;117505;-66
2021/08/30 00:48:08;;;;;;;;;;;;;;;11.56;76.83;99503.16;254721;1102;115628;-66
2021/08/30 00:53:11;;;;;;;9.03;8.20;;;;;;;11.47;76.47;99500.91;256608;1103;104283;-66
2021/08/30 00:58:14;;;;;;;10.43;9.33;;;;;;;11.56;77.61;99503.97;254889;1097;115066;-66
2021/08/30 01:03:17;;;;;;;9.45;8.65;;;;;;;11.64;77.38;99500.84;255043;1102;115565;-65
2021/08/30 01:08:29;;;;;;;34.35;9.90;;;;;;;11.66;77.61;99500.60;254950;1102;115245;-66
2021/08/30 01:13:58;;;;;;;10.40;8.80;;;;;;;11.63;77.06;99493.08;254343;1101;116007;-65
2021/08/30 01:19:04;;;;;;;9.68;8.68;;;;;;;11.58;77.29;99491.18;255078;1103;115580;-65
2021/08/30 01:24:12;;;;;;;11.93;10.23;;;;;;;11.62;77.69;99483.45;254880;1101;117150;-66
2021/08/30 01:29:31;;;;;;;10.90;9.20;;;;;;;11.63;77.46;99485.07;254241;1102;116366;-65
2021/08/30 01:34:36;;;;;;;11.50;10.28;;;;;;;11.55;76.99;99486.33;256018;1101;118160;-66
2021/08/30 01:39:41;;;;;;;19.08;9.65;;;;;;;11.45;76.85;99486.19;255141;1102;118469;-65
2021/08/30 01:44:45;;;;;;;11.35;9.28;;;;;;;11.35;76.96;99486.03;255512;1101;115261;-66
2021/08/30 01:49:59;;;;;;;9.43;8.07;;;;;;;11.25;77.01;99469.91;254989;1101;116424;-65
2021/08/30 02:05:46;;;;;;;11.53;8.68;;;;;;;11.33;77.34;99461.45;257201;1103;115287;-65
2021/08/30 02:10:54;;;;;;;10.58;8.70;;;;;;;11.28;76.88;99466.75;257301;1101;115511;-65
2021/08/30 02:15:59;;;;;;;9.80;8.58;;;;;;;11.20;77.32;99451.95;256498;1103;118769;-64
2021/08/30 02:21:06;;;;;;;8.13;7.18;;;;;;;11.22;77.07;99449.85;257131;1101;115096;-65
2021/08/30 02:26:14;;;;;;;10.75;8.40;;;;;;;11.20;77.22;99456.48;256718;1101;115366;-65
2021/08/30 02:31:18;;;;;;;10.73;8.53;;;;;;;11.17;77.15;99463.12;255727;1101;115582;-65
2021/08/30 02:36:21;;;;;;;10.03;9.03;;;;;;;11.14;77.75;99459.08;255562;1096;117442;-65
2021/08/30 02:41:26;;;;;;;8.28;7.55;;;;;;;11.09;77.37;99442.99;255142;1101;116124;-67
2021/08/30 02:46:31;;;;;;;9.60;8.63;;;;;;;11.07;77.75;99437.09;255570;1102;115876;-64
2021/08/30 02:51:34;;;;;;;11.20;8.85;;;;;;;11.10;77.87;99436.61;254965;1104;115665;-65
2021/08/30 02:56:41;;;;;;;13.03;9.40;;;;;;;11.18;77.83;99429.24;255614;1103;115008;-67
2021/08/30 03:01:45;;;;;;;13.72;11.00;;;;;;;11.24;77.91;99428.27;254121;1097;115843;-65
2021/08/30 03:06:50;;;;;;;9.03;7.50;;;;;;;11.10;77.29;99430.46;255478;1103;116027;-67
2021/08/30 03:11:55;;;;;;;11.23;6.78;;;;;;;10.94;77.59;99431.31;255695;1097;115486;-64
2021/08/30 03:17:04;;;;;;;8.03;7.23;;;;;;;10.81;77.54;99435.11;254832;1104;115440;-65
2021/08/30 03:22:11;;;;;;;11.20;7.95;;;;;;;10.80;77.93;99452.15;254407;1101;115927;-66
2021/08/30 03:27:16;;;;;;;10.20;9.23;;;;;;;10.73;78.02;99438.98;254916;1101;118678;-67
2021/08/30 03:32:21;;;;;;;10.63;8.37;;;;;;;10.83;78.47;99441.00;254402;1096;115383;-67
2021/08/30 03:37:25;;;;;;;10.65;9.58;;;;;;;10.98;78.58;99437.77;255531;1102;116447;-65
2021/08/30 03:42:28;;;;;;;9.55;8.55;;;;;;;11.07;78.51;99441.62;254734;1101;115790;-68
2021/08/30 03:47:32;;;;;;;10.00;9.00;;;;;;;11.08;78.63;99432.56;254390;1104;115488;-68
2021/08/30 03:52:39;;;;;;;9.83;8.83;;;;;;;11.14;78.63;99437.73;254318;1104;115354;-67
2021/08/30 03:57:42;;;;;;;11.13;9.77;;;;;;;11.10;78.53;99447.27;256609;1104;116101;-65
2021/08/30 04:02:48;;;;;;;11.33;8.68;;;;;;;11.09;79.34;99445.66;255918;1101;115735;-66
2021/08/30 04:07:53;;;;;;;15.73;9.48;;;;;;;11.20;78.87;99445.81;257444;1101;115189;-63
2021/08/30 04:12:58;;;;;;;18.03;10.45;;;;;;;11.27;78.84;99449.12;257333;1102;136652;-64
2021/08/30 04:18:01;;;;;;;16.95;10.85;;;;;;;11.41;79.26;99447.70;257090;1103;115920;-63
2021/08/30 04:23:04;;;;;;;17.58;11.45;;;;;;;11.57;79.45;99444.18;255240;1101;117119;-64
2021/08/30 04:28:07;;;;;;;16.68;12.68;;;;;;;11.70;79.38;99445.66;256564;1097;116196;-63
2021/08/30 04:33:12;;;;;;;15.98;12.13;;;;;;;11.78;79.31;99443.39;256262;1101;115833;-64
2021/08/30 04:38:16;;;;;;;15.63;11.93;;;;;;;11.85;79.56;99458.42;254717;1101;115447;-64
2021/08/30 04:43:19;;;;;;;12.88;11.28;;;;;;;11.90;79.55;99459.30;254508;1102;115683;-65
2021/08/30 04:48:22;;;;;;;13.68;11.85;;;;;;;11.98;79.75;99461.50;255567;1101;115311;-65
2021/08/30 04:53:26;;;;;;;16.55;11.88;;;;;;;12.05;79.62;99458.64;254606;1101;116561;-67
2021/08/30 04:58:29;;;;;;;17.40;12.00;;;;;;;12.06;79.56;99450.38;254898;1101;116761;-64
2021/08/30 05:03:32;;;;;;;15.98;12.10;;;;;;;12.07;79.70;99457.34;255183;1101;115944;-65
2021/08/30 05:08:35;;;;;;;14.50;11.55;;;;;;;12.14;79.83;99454.47;255121;1102;115405;-64
2021/08/30 05:13:39;;;;;;;14.53;11.25;;;;;;;12.22;79.78;99464.72;254276;1103;115676;-70
2021/08/30 05:18:42;;;;;;;13.95;11.93;;;;;;;12.24;79.92;99457.23;254765;1101;116449;-67
2021/08/30 05:23:45;;;;;;;16.43;11.48;;;;;;;12.33;80.07;99469.09;254517;1101;115907;-67
2021/08/30 05:28:48;;;;;;;16.75;11.33;;;;;;;12.45;80.01;99464.41;254953;1101;116115;-65
2021/08/30 05:33:51;;;;;;;12.25;10.13;;;;;;;12.51;80.04;99475.14;254193;1104;115421;-64
2021/08/30 05:38:56;;;;;;;17.80;13.30;;;;;;;12.57;80.01;99480.27;256246;1104;116055;-64
2021/08/30 05:44:00;;;;;;;16.05;12.35;;;;;;;12.68;80.05;99457.10;254475;1102;116440;-64
2021/08/30 05:49:02;;;;;;;13.68;12.33;;;;;;;12.80;80.10;99453.20;255672;1104;115891;-65
2021/08/30 05:54:06;;;;;;;16.20;11.55;;;;;;;12.90;79.85;99457.00;255419;1102;115894;-64
2021/08/30 05:59:09;;;;;;;13.87;10.97;;;;;;;12.89;79.95;99452.70;255448;1101;115885;-64
2021/08/30 06:04:12;;;;;;;14.70;11.88;;;;;;;12.94;80.21;99453.56;254391;1104;116447;-66
2021/08/30 06:09:15;;;;;;;13.23;10.77;;;;;;;13.01;80.29;99464.85;256172;1104;116481;-66
2021/08/30 06:14:19;;;;;;;14.35;12.85;;;;;;;13.07;79.73;99453.13;254930;1104;116340;-65
2021/08/30 06:19:22;;;;;;;17.27;12.23;;;;;;;13.13;80.35;99448.62;257326;1104;115926;-65
2021/08/30 06:24:25;;;;;;;15.10;11.58;;;;;;;13.24;79.56;99438.79;257302;1102;117753;-65
2021/08/30 06:29:29;;;;;;;16.65;13.88;;;;;;;13.34;79.73;99441.53;254322;1104;118072;-65
2021/08/30 06:34:33;;;;;;;14.80;12.03;;;;;;;13.44;79.82;99438.91;256586;1101;117530;-65
2021/08/30 06:39:36;;;;;;;28.28;12.33;;;;;;;13.51;79.72;99428.75;255927;1101;116464;-65
2021/08/30 06:44:40;;;;;;;17.30;12.18;;;;;;;13.62;80.14;99438.45;254682;1101;117598;-65
2021/08/30 06:49:43;;;;;;;16.73;13.10;;;;;;;13.72;80.11;99435.83;255227;1101;116211;-65
2021/08/30 06:54:47;;;;;;;14.67;12.67;;;;;;;13.84;80.01;99435.58;254380;1104;116242;-66
2021/08/30 06:59:50;;;;;;;15.75;13.08;;;;;;;13.88;79.40;99438.53;254324;1102;116226;-65
2021/08/30 07:04:53;;;;;;;17.23;13.65;;;;;;;13.92;80.22;99428.91;255071;1104;116147;-64
2021/08/30 07:09:58;;;;;;;17.43;13.38;;;;;;;13.97;80.07;99437.77;254367;1102;115854;-65
2021/08/30 07:15:01;;;;;;;17.30;13.70;;;;;;;14.00;79.62;99431.08;255433;1104;116073;-64
2021/08/30 07:20:07;;;;;;;14.08;12.43;;;;;;;14.05;79.44;99436.46;254591;1101;116234;-65
2021/08/30 07:25:12;;;;;;;17.73;13.23;;;;;;;14.15;79.72;99439.14;254814;1102;115477;-64
2021/08/30 07:30:15;;;;;;;17.38;12.55;;;;;;;14.28;79.69;99438.64;254237;1102;116242;-66
2021/08/30 07:35:21;;;;;;;16.68;12.73;;;;;;;14.44;79.60;99432.23;256005;1101;115980;-65
2021/08/30 07:40:24;;;;;;;14.13;12.65;;;;;;;14.60;79.86;99446.48;255039;1101;116108;-64
2021/08/30 07:45:27;;;;;;;22.55;14.80;;;;;;;14.64;79.72;99452.12;254553;1101;116160;-64
2021/08/30 07:50:30;;;;;;;15.28;13.63;;;;;;;14.73;79.61;99443.24;255297;1101;117070;-65
2021/08/30 07:55:35;;;;;;;15.13;13.53;;;;;;;14.79;79.56;99450.22;254265;1101;116308;-65
2021/08/30 08:00:40;;;;;;;14.68;13.08;;;;;;;14.83;79.62;99451.30;255177;1097;116042;-65
2021/08/30 08:05:46;;;;;;;12.53;10.90;;;;;;;14.91;79.20;99454.52;254460;1101;116217;-65
2021/08/30 08:10:50;;;;;;;14.20;11.98;;;;;;;15.05;79.43;99458.25;255589;1101;117839;-65
2021/08/30 08:15:53;;;;;;;14.90;12.75;;;;;;;15.10;79.12;99451.00;257037;1104;116053;-66
2021/08/30 08:20:57;;;;;;;15.30;13.85;;;;;;;15.14;78.63;99462.80;257272;1102;116246;-66
2021/08/30 08:25:59;;;;;;;14.15;12.68;;;;;;;15.27;78.66;99460.64;257321;1102;118637;-66
2021/08/30 08:31:01;;;;;;;15.80;13.95;;;;;;;15.35;78.33;99452.01;256448;1101;115475;-66
2021/08/30 08:36:05;;;;;;;13.95;12.45;;;;;;;15.45;78.60;99449.31;255469;1101;116035;-67
2021/08/30 08:41:11;;;;;;;13.30;11.90;;;;;;;15.51;78.56;99458.97;255113;1103;116901;-66
2021/08/30 08:46:15;;;;;;;14.97;13.03;;;;;;;15.50;78.33;99463.53;255670;1101;116333;-68
2021/08/30 08:51:21;;;;;;;;;;;;;;;15.43;78.40;99467.58;254560;1102;115912;-68
2021/08/30 08:56:31;;;;;;;13.30;11.90;;;;;;;15.38;78.54;99475.64;255058;1102;103085;-67
2021/08/30 09:01:40;;;;;;;14.63;13.00;;;;;;;15.40;78.16;99468.12;254938;1101;116158;-67
2021/08/30 09:06:48;;;;;;;15.20;13.50;;;;;;;15.44;78.38;99466.50;254254;1101;114974;-68
2021/08/30 09:11:58;;;;;;;16.53;13.55;;;;;;;15.47;78.32;99457.90;254991;1103;115800;-68
2021/08/30 09:17:08;;;;;;;18.38;16.55;;;;;;;15.54;78.06;99449.55;254349;1104;115530;-68
2021/08/30 09:22:15;;;;;;;17.20;14.80;;;;;;;15.59;78.53;99453.06;254602;1101;116945;-66
2021/08/30 09:27:18;;;;;;;14.50;12.98;;;;;;;15.66;78.48;99453.55;254967;1101;116019;-66
2021/08/30 09:32:33;;;;;;;18.17;14.47;;;;;;;15.73;78.48;99454.07;255211;1102;116139;-65
2021/08/30 09:37:40;;;;;;;16.40;13.07;;;;;;;15.92;79.04;99456.13;256066;1104;116072;-65
2021/08/30 09:42:57;;;;;;;26.98;15.42;;;;;;;15.85;78.39;99450.27;255183;1101;115421;-65
2021/08/30 09:48:06;;;;;;;13.85;11.63;;;;;;;15.86;77.96;99449.99;257009;1103;116440;-65
2021/08/30 09:53:15;;;;;;;15.73;14.03;;;;;;;15.74;78.21;99449.50;254764;1101;116081;-67
2021/08/30 09:58:24;;;;;;;17.88;15.58;;;;;;;15.85;78.68;99448.38;254414;1102;115299;-66
2021/08/30 10:03:38;;;;;;;;;;;;;;;15.98;78.90;99439.70;255699;1102;115636;-66
2021/08/30 10:08:42;;;;;;;18.15;13.40;;;;;;;16.12;78.66;99435.33;255396;1101;103029;-65
2021/08/30 10:13:45;;;;;;;17.48;15.45;;;;;;;16.33;78.81;99430.61;255788;1101;115611;-66
2021/08/30 10:18:48;;;;;;;20.70;16.65;;;;;;;16.47;78.86;99431.60;257176;1102;116540;-68
2021/08/30 10:23:51;;;;;;;17.70;15.53;;;;;;;16.62;78.57;99435.23;255843;1103;116162;-66
2021/08/30 10:28:56;;;;;;;20.30;18.00;;;;;;;16.72;78.36;99432.50;257157;1104;115884;-65
2021/08/30 10:34:01;;;;;;;17.68;15.73;;;;;;;16.75;77.86;99429.25;255003;1102;115291;-66
2021/08/30 10:39:08;;;;;;;19.30;14.63;;;;;;;16.64;78.12;99428.52;255871;1103;115824;-68
2021/08/30 10:44:14;;;;;;;30.25;16.95;;;;;;;16.65;78.44;99422.06;255031;1101;115383;-66
2021/08/30 10:49:29;;;;;;;25.28;18.83;;;;;;;16.67;78.42;99416.39;255442;1101;116677;-66
2021/08/30 10:54:34;;;;;;;22.08;17.13;;;;;;;16.65;77.99;99426.64;254500;1102;116042;-66
2021/08/30 10:59:37;;;;;;;19.35;14.98;;;;;;;16.62;78.15;99417.20;254167;1102;116904;-65
2021/08/30 11:04:44;;;;;;;20.93;17.45;;;;;;;16.70;78.37;99418.53;254558;1101;115195;-66
2021/08/30 11:09:49;;;;;;;19.60;17.48;;;;;;;16.91;78.20;99419.94;254682;1104;115432;-66
2021/08/30 11:14:58;;;;;;;18.03;16.15;;;;;;;17.11;78.67;99419.76;255146;1101;115764;-66
2021/08/30 11:20:05;;;;;;;18.53;15.07;;;;;;;17.26;78.22;99417.97;254134;1096;115353;-67
2021/08/30 11:25:12;;;;;;;20.10;17.97;;;;;;;17.30;78.04;99419.81;254981;1104;115526;-65
2021/08/30 11:30:19;;;;;;;18.93;16.78;;;;;;;17.33;78.20;99411.16;254678;1101;118130;-68
2021/08/30 11:35:24;;;;;;;21.43;17.25;;;;;;;17.18;77.89;99425.59;254143;1101;116109;-69
2021/08/30 11:40:30;;;;;;;18.15;16.25;;;;;;;17.05;77.77;99425.47;254387;1102;115569;-68
2021/08/30 11:45:34;;;;;;;19.43;17.30;;;;;;;16.93;77.90;99416.96;254767;1101;115450;-67
2021/08/30 11:50:40;;;;;;;20.17;16.97;;;;;;;16.81;77.91;99420.83;254981;1097;116007;-67
2021/08/30 11:55:45;;;;;;;20.18;16.30;;;;;;;16.79;78.23;99417.64;255083;1101;117910;-67
2021/08/30 12:01:03;;;;;;;18.28;16.34;;;;;;;16.76;77.96;99412.02;254057;1101;116090;-67
2021/08/30 12:06:20;;;;;;;18.55;15.60;;;;;;;16.69;78.33;99406.16;253985;1102;116109;-67
2021/08/30 12:11:24;;;;;;;16.65;14.80;;;;;;;16.70;78.52;99413.14;254230;1101;118299;-67
2021/08/30 12:16:28;;;;;;;22.05;17.20;;;;;;;16.68;78.70;99409.92;256906;1103;115678;-67
2021/08/30 12:21:37;;;;;;;19.83;15.43;;;;;;;16.75;78.92;99403.14;254243;1104;116424;-67
2021/08/30 12:26:40;;;;;;;16.30;13.57;;;;;;;16.60;78.44;99402.42;256712;1104;118479;-66
2021/08/30 12:31:49;;;;;;;18.10;13.50;;;;;;;16.52;78.51;99403.83;255658;1101;116276;-67
2021/08/30 12:36:53;;;;;;;16.48;13.50;;;;;;;16.51;78.63;99394.95;255016;1101;115609;-67
2021/08/30 12:41:57;;;;;;;18.88;14.83;;;;;;;16.45;78.26;99396.09;255733;1101;115899;-67
2021/08/30 12:47:01;;;;;;;16.78;13.30;;;;;;;16.42;78.88;99396.66;254046;1102;116442;-67
2021/08/30 12:52:04;;;;;;;15.53;13.75;;;;;;;16.41;78.85;99395.05;254090;1102;115783;-66
2021/08/30 12:57:08;;;;;;;17.25;13.15;;;;;;;16.40;78.96;99398.83;255000;1102;117787;-67
2021/08/30 13:02:12;;;;;;;13.20;11.80;;;;;;;16.38;78.79;99395.61;255337;1101;115736;-68
2021/08/30 13:07:15;;;;;;;14.63;12.28;;;;;;;16.38;79.16;99387.54;254809;1102;115795;-67
2021/08/30 13:12:18;;;;;;;16.97;13.60;;;;;;;16.41;79.02;99378.11;255050;1101;115677;-67
2021/08/30 13:17:21;;;;;;;19.65;13.23;;;;;;;16.49;79.47;99381.00;254354;1102;115599;-66
2021/08/30 13:22:24;;;;;;;15.78;14.13;;;;;;;16.54;79.53;99377.44;254102;1104;116313;-66
2021/08/30 13:27:55;;;;;;;12.77;11.20;;;;;;;16.56;79.27;99369.09;255053;1101;175377;-65
2021/08/30 13:32:58;;;;;;;14.43;12.93;;;;;;;16.50;79.49;99362.98;254275;1104;116096;-69
2021/08/30 13:38:02;;;;;;;15.45;12.60;;;;;;;16.48;79.54;99363.25;254185;1096;115907;-66
2021/08/30 13:43:11;;;;;;;15.13;13.50;;;;;;;16.47;79.54;99363.53;254155;1101;115995;-66
2021/08/30 13:48:15;;;;;;;15.93;12.28;;;;;;;16.46;79.33;99357.35;254739;1104;116611;-65
2021/08/30 13:53:18;;;;;;;15.23;11.60;;;;;;;16.43;79.36;99347.16;254273;1102;116087;-67
2021/08/30 13:58:22;;;;;;;18.30;14.28;;;;;;;16.41;79.39;99357.39;254897;1103;115967;-66
2021/08/30 14:03:31;;;;;;;17.20;13.38;;;;;;;16.40;79.66;99371.13;254909;1103;116227;-66
2021/08/30 14:08:34;;;;;;;16.15;12.73;;;;;;;16.33;79.50;99368.75;254298;1103;115808;-67
2021/08/30 14:13:50;;;;;;;20.40;14.47;;;;;;;16.30;79.78;99368.50;254837;1104;117460;-65
2021/08/30 14:19:14;;;;;;;19.60;15.95;;;;;;;16.23;79.64;99366.13;256087;1103;117549;-66
2021/08/30 14:24:20;;;;;;;18.00;14.50;;;;;;;16.18;79.33;99360.81;257016;1103;116675;-67
2021/08/30 14:29:26;;;;;;;19.23;14.78;;;;;;;16.04;79.46;99362.52;254474;1097;116501;-66
2021/08/30 14:34:30;;;;;;;17.23;14.58;;;;;;;15.94;79.33;99359.88;257027;1102;115384;-66
2021/08/30 14:39:33;;;;;;;21.75;16.60;;;;;;;15.92;79.70;99362.84;257089;1101;116231;-67
2021/08/30 14:44:37;;;;;;;17.03;13.40;;;;;;;15.91;80.02;99360.44;255947;1101;115778;-66
2021/08/30 14:49:41;;;;;;;21.73;14.53;;;;;;;15.87;80.12;99346.78;254746;1102;116159;-66
2021/08/30 14:54:47;;;;;;;21.50;15.85;;;;;;;15.89;80.13;99362.63;254096;1101;116297;-68
2021/08/30 14:59:53;;;;;;;24.10;17.73;;;;;;;15.87;79.85;99360.22;254706;1102;117051;-67
2021/08/30 15:04:59;;;;;;;21.48;16.28;;;;;;;15.86;80.38;99361.30;254142;1101;116827;-66
2021/08/30 15:10:03;;;;;;;23.33;16.77;;;;;;;15.86;80.28;99373.93;254798;1101;115808;-64
2021/08/30 15:15:07;;;;;;;14.05;10.58;;;;;;;15.76;79.85;99389.02;254923;1096;116102;-66
2021/08/30 15:20:14;;;;;;;10.30;8.53;;;;;;;15.66;79.89;99383.69;254683;1101;115945;-66
2021/08/30 15:25:17;;;;;;;4.75;4.35;;;;;;;15.63;79.74;99388.81;254287;1101;115461;-68
2021/08/30 15:30:22;;;;;;;3.38;3.08;;;;;;;15.53;79.89;99378.91;255220;1101;115966;-67
2021/08/30 15:35:24;;;;;;;3.90;3.08;;;;;;;15.48;79.83;99378.92;254220;1101;115891;-67
2021/08/30 15:40:27;;;;;;;5.88;3.40;;;;;;;15.45;79.78;99376.78;254319;1102;115873;-65
2021/08/30 15:45:30;;;;;;;3.38;3.08;;;;;;;15.42;79.87;99374.64;254401;1101;115778;-65
2021/08/30 15:50:37;;;;;;;2.63;2.43;;;;;;;15.43;80.40;99373.56;254899;1101;116368;-66
2021/08/30 15:55:41;;;;;;;4.13;3.13;;;;;;;15.42;79.86;99372.77;254441;1102;117572;-67
2021/08/30 16:00:46;;;;;;;5.18;3.08;;;;;;;15.39;79.75;99369.81;255960;1101;115192;-65
2021/08/30 16:05:50;;;;;;;1.95;1.83;;;;;;;15.36;79.94;99362.31;255380;1101;116319;-65
2021/08/30 16:10:58;;;;;;;4.28;2.68;;;;;;;15.28;79.61;99357.53;254276;1101;116961;-68
2021/08/30 16:16:04;;;;;;;6.95;3.30;;;;;;;15.21;79.89;99360.50;254292;1101;116273;-65
2021/08/30 16:21:07;;;;;;;2.95;2.53;;;;;;;15.14;79.83;99359.98;255891;1104;203329;-66
2021/08/30 16:26:10;;;;;;;5.00;2.65;;;;;;;15.08;79.98;99350.33;257168;1101;115964;-67
2021/08/30 16:31:13;;;;;;;5.28;3.60;;;;;;;15.08;80.16;99359.19;255499;1101;117465;-66
2021/08/30 16:36:16;;;;;;;3.33;3.00;;;;;;;15.10;79.96;99343.61;254234;1101;115508;-65
2021/08/30 16:41:24;;;;;;;2.28;2.15;;;;;;;15.14;80.09;99331.25;254702;1101;115878;-65
2021/08/30 16:46:27;;;;;;;3.78;2.98;;;;;;;15.07;79.51;99329.93;255944;1102;115395;-66
2021/08/30 16:51:34;;;;;;;4.43;3.48;;;;;;;15.07;80.28;99336.10;257034;1101;116498;-67
2021/08/30 16:56:40;;;;;;;3.43;3.13;;;;;;;15.08;80.36;99335.03;256126;1101;115311;-65
2021/08/30 17:01:43;;;;;;;6.35;4.58;;;;;;;15.10;80.08;99326.70;255558;1101;115423;-65
2021/08/30 17:06:51;;;;;;;4.63;4.05;;;;;;;15.13;80.05;99324.28;254984;1096;115949;-66
2021/08/30 17:12:00;;;;;;;3.58;3.25;;;;;;;15.11;79.82;99322.94;255379;1103;115528;-67
2021/08/30 17:17:05;;;;;;;4.13;3.73;;;;;;;15.07;79.89;99320.00;254215;1103;115547;-66
2021/08/30 17:22:11;;;;;;;3.90;3.30;;;;;;;14.98;80.16;99318.17;254123;1104;118225;-66
2021/08/30 17:27:15;;;;;;;5.17;4.20;;;;;;;14.90;79.82;99311.48;254522;1104;117560;-65
2021/08/30 17:32:18;;;;;;;6.80;3.83;;;;;;;14.85;80.36;99314.17;254537;1104;115609;-66
2021/08/30 17:37:21;;;;;;;5.50;4.25;;;;;;;14.88;79.92;99307.45;254259;1104;115885;-68
2021/08/30 17:42:23;;;;;;;4.37;3.93;;;;;;;14.90;80.70;99313.36;254268;1102;115476;-67
2021/08/30 17:47:26;;;;;;;4.83;4.33;;;;;;;14.91;80.68;99306.92;254204;1104;116388;-65
2021/08/30 17:52:30;;;;;;;5.20;4.37;;;;;;;14.93;80.82;99307.45;253942;1104;116289;-69
2021/08/30 17:57:38;;;;;;;5.95;5.18;;;;;;;14.87;80.41;99301.29;254005;1103;117540;-67
2021/08/30 18:02:41;;;;;;;3.83;3.53;;;;;;;14.85;80.67;99295.39;256090;1104;115678;-66
2021/08/30 18:07:45;;;;;;;4.93;3.73;;;;;;;14.86;80.72;99288.95;254489;1104;117175;-65
2021/08/30 18:12:48;;;;;;;7.10;4.83;;;;;;;14.89;80.64;99288.41;254756;1096;116038;-64
2021/08/30 18:17:51;;;;;;;5.40;4.60;;;;;;;14.92;80.69;99292.42;255285;1103;115657;-65
2021/08/30 18:23:00;;;;;;;5.73;3.75;;;;;;;14.94;81.15;99290.27;255822;1097;115967;-66
2021/08/30 18:28:03;;;;;;;;;;;;;;;14.93;80.94;99288.66;254392;1101;116200;-66
2021/08/30 18:33:06;;;;;;;5.95;5.10;;;;;;;14.91;81.13;99275.52;257567;1101;104476;-66
2021/08/30 18:38:11;;;;;;;10.38;5.20;;;;;;;14.98;81.25;99280.59;257158;1101;115313;-66
2021/08/30 18:43:24;;;;;;;6.58;4.65;;;;;;;14.96;80.96;99272.81;257264;1101;115298;-65
2021/08/30 18:48:34;;;;;;;8.63;5.70;;;;;;;14.99;80.75;99272.24;257105;1101;115887;-66
2021/08/30 18:53:50;;;;;;;6.13;4.35;;;;;;;14.97;80.98;99269.05;255549;1101;116346;-65
2021/08/30 18:59:08;;;;;;;6.83;4.78;;;;;;;15.00;80.70;99263.11;255466;1101;116041;-66
2021/08/30 19:04:31;;;;;;;5.15;4.20;;;;;;;14.98;80.85;99265.27;254624;1101;115278;-65
2021/08/30 19:09:35;;;;;;;14.00;5.57;;;;;;;14.94;80.80;99245.45;254985;1101;115507;-65
2021/08/30 19:14:43;;;;;;;5.38;4.85;;;;;;;14.98;80.86;99254.53;254403;1104;116643;-66
2021/08/30 19:19:58;;;;;;;3.70;3.40;;;;;;;15.01;81.02;99245.93;256116;1101;116165;-66
2021/08/30 19:25:25;;;;;;;;;;;;;;;15.04;80.97;99239.21;254427;1097;115328;-66
2021/08/30 19:30:42;;;;;;;3.08;2.88;;;;;;;15.01;81.21;99237.88;256076;1101;103403;-66
2021/08/30 19:36:28;;;;;;;4.20;3.33;;;;;;;15.01;81.29;99232.52;254216;1096;116497;-65
2021/08/30 19:41:44;;;;;;;5.57;4.70;;;;;;;15.00;81.34;99230.91;254913;1101;115017;-65
2021/08/30 19:46:48;;;;;;;3.83;3.50;;;;;;;14.99;80.90;99223.13;254221;1101;116346;-66
2021/08/30 19:51:52;;;;;;;6.50;4.10;;;;;;;14.90;81.11;99214.87;257155;1101;115557;-66
2021/08/30 19:56:56;;;;;;;3.60;3.25;;;;;;;14.89;80.90;99207.09;257336;1101;115150;-65
2021/08/30 20:02:01;;;;;;;3.53;3.23;;;;;;;14.89;81.07;99205.21;254402;1097;115933;-65
2021/08/30 20:07:05;;;;;;;2.93;2.67;;;;;;;14.95;81.68;99201.43;255473;1101;116994;-65
2021/08/30 20:12:11;;;;;;;3.30;3.10;;;;;;;14.95;81.44;99174.59;255473;1101;115997;-64
2021/08/30 20:17:14;;;;;;;3.85;3.55;;;;;;;14.95;81.56;99177.28;256076;1101;115301;-66
2021/08/30 20:22:18;;;;;;;4.13;3.33;;;;;;;14.93;81.33;99182.12;255868;1102;115763;-65
2021/08/30 20:27:22;;;;;;;3.47;2.83;;;;;;;14.95;81.61;99185.33;254736;1101;115808;-66
2021/08/30 20:32:26;;;;;;;3.23;2.93;;;;;;;15.02;81.76;99174.27;257391;1101;116231;-66
2021/08/30 20:37:29;;;;;;;3.53;3.23;;;;;;;15.05;81.56;99173.72;256213;1101;116199;-67
2021/08/30 20:42:32;;;;;;;2.53;2.18;;;;;;;15.05;81.26;99174.52;257311;1104;118839;-66
2021/08/30 20:47:35;;;;;;;3.10;2.45;;;;;;;15.08;81.50;99165.11;257497;1101;116246;-66
2021/08/30 20:52:38;;;;;;;3.20;3.00;;;;;;;15.12;81.63;99158.91;257471;1101;115486;-66
2021/08/30 20:57:41;;;;;;;2.73;2.50;;;;;;;15.23;81.32;99161.54;257135;1102;116042;-66
2021/08/30 21:02:45;;;;;;;6.33;3.33;;;;;;;15.27;81.69;99160.70;254791;1101;115863;-65
2021/08/30 21:07:48;;;;;;;4.18;3.78;;;;;;;15.32;81.41;99157.16;255416;1101;116483;-64
2021/08/30 21:12:52;;;;;;;3.65;3.35;;;;;;;15.31;81.57;99159.04;254427;1097;116306;-65
2021/08/30 21:17:56;;;;;;;4.30;3.65;;;;;;;15.30;81.64;99160.12;255320;1101;116142;-66
2021/08/30 21:22:59;;;;;;;3.13;2.93;;;;;;;15.28;81.53;99156.14;254547;1097;116390;-64
2021/08/30 21:28:02;;;;;;;2.98;2.68;;;;;;;15.24;81.61;99141.66;255499;1101;116315;-68
2021/08/30 21:33:05;;;;;;;3.63;3.30;;;;;;;15.24;81.66;99147.84;254557;1101;116733;-67
2021/08/30 21:38:08;;;;;;;2.50;2.30;;;;;;;15.20;81.82;99140.61;254323;1102;115812;-65
2021/08/30 21:43:11;;;;;;;1.80;1.70;;;;;;;15.16;81.37;99138.48;254611;1102;115996;-67
2021/08/30 21:48:14;;;;;;;2.30;2.20;;;;;;;15.13;81.52;99130.98;254544;1101;116557;-65
2021/08/30 21:53:21;;;;;;;5.15;1.65;;;;;;;15.16;81.68;99137.69;254369;1096;115612;-66
2021/08/30 21:58:25;;;;;;;2.43;2.23;;;;;;;15.12;81.42;99140.12;254569;1101;117622;-65
2021/08/30 22:03:46;;;;;;;1.83;1.73;;;;;;;15.09;81.51;99140.67;254416;1096;115858;-65
2021/08/30 22:08:50;;;;;;;2.50;2.05;;;;;;;15.05;81.48;99153.05;254296;1101;116248;-67
2021/08/30 22:13:57;;;;;;;1.70;1.60;;;;;;;15.03;81.65;99149.83;255836;1096;116118;-65
2021/08/30 22:19:01;;;;;;;2.00;1.90;;;;;;;15.03;81.74;99149.03;254279;1103;116151;-64
2021/08/30 22:24:09;;;;;;;3.20;1.78;;;;;;;15.06;82.17;99143.91;255052;1101;115572;-65
2021/08/30 22:29:11;;;;;;;2.13;2.03;;;;;;;15.15;82.23;99136.88;255674;1103;115648;-65
2021/08/30 22:34:16;;;;;;;2.25;2.10;;;;;;;15.24;82.18;99133.61;254010;1104;115895;-67
2021/08/30 22:39:20;;;;;;;3.67;2.73;;;;;;;15.28;81.79;99146.20;257063;1103;116399;-66
2021/08/30 22:44:22;;;;;;;2.48;2.28;;;;;;;15.28;82.01;99146.20;256908;1102;115804;-65
2021/08/30 22:49:25;;;;;;;2.43;2.23;;;;;;;15.27;81.62;99146.48;255182;1103;115814;-66
2021/08/30 22:54:28;;;;;;;3.23;3.03;;;;;;;15.25;81.74;99151.32;256253;1101;117906;-66
2021/08/30 22:59:31;;;;;;;3.08;2.88;;;;;;;15.21;82.08;99161.02;257153;1101;115845;-65
2021/08/30 23:04:33;;;;;;;7.15;4.03;;;;;;;15.26;81.62;99152.92;257364;1101;115679;-66
2021/08/30 23:09:37;;;;;;;5.43;3.33;;;;;;;15.32;82.00;99151.78;256108;1102;114836;-65
2021/08/30 23:14:39;;;;;;;4.48;3.93;;;;;;;15.38;81.97;99153.36;256371;1101;115482;-65
2021/08/30 23:19:42;;;;;;;5.45;4.35;;;;;;;15.42;81.98;99144.47;255693;1103;117822;-68